createdAt,value
2018-01-25T00:01:49.089Z,64.60
2018-01-25T00:04:23.762Z,65.30
2018-01-25T00:06:58.725Z,64.90
2018-01-25T00:09:32.835Z,64.90
2018-01-25T00:12:07.558Z,65.30
2018-01-25T00:14:42.553Z,65.40
2018-01-25T00:17:16.933Z,65.40
2018-01-25T00:19:51.624Z,66.40
2018-01-25T00:22:25.472Z,65.40
2018-01-25T00:24:59.329Z,66.40
2018-01-25T00:27:33.185Z,65.70
2018-01-25T00:30:08.339Z,66.00
2018-01-25T00:32:44.064Z,65.90
2018-01-25T00:35:18.013Z,65.80
2018-01-25T00:37:52.873Z,66.10
2018-01-25T00:40:26.699Z,66.10
2018-01-25T00:43:01.404Z,66.30
2018-01-25T00:45:35.341Z,66.30
2018-01-25T00:48:09.544Z,66.20
2018-01-25T00:50:43.546Z,66.20
2018-01-25T00:53:18.170Z,66.40
2018-01-25T00:55:52.410Z,66.40
2018-01-25T00:58:26.273Z,66.20
2018-01-25T01:01:00.227Z,66.40
2018-01-25T01:03:34.813Z,66.60
2018-01-25T01:06:08.848Z,66.50
2018-01-25T01:08:43.708Z,66.30
2018-01-25T01:11:17.839Z,66.30
2018-01-25T01:13:51.863Z,66.30
2018-01-25T01:16:26.471Z,66.20
2018-01-25T01:19:01.493Z,66.50
2018-01-25T01:21:36.437Z,66.40
2018-01-25T01:24:10.988Z,65.70
2018-01-25T01:26:44.858Z,66.30
2018-01-25T01:29:18.692Z,66.40
2018-01-25T01:31:52.705Z,66.50
2018-01-25T01:34:26.746Z,66.50
2018-01-25T01:37:01.386Z,66.40
2018-01-25T01:39:35.315Z,66.60
2018-01-25T01:42:09.204Z,66.50
2018-01-25T01:44:43.036Z,66.30
2018-01-25T01:47:16.895Z,66.10
2018-01-25T01:49:50.653Z,66.10
2018-01-25T01:52:24.632Z,66.20
2018-01-25T01:54:58.691Z,66.10
2018-01-25T01:57:34.316Z,65.90
2018-01-25T02:00:08.627Z,66.00
2018-01-25T02:02:43.005Z,66.00
2018-01-25T02:05:17.246Z,66.00
2018-01-25T02:07:51.252Z,66.20
2018-01-25T02:10:26.589Z,65.70
2018-01-25T02:13:00.868Z,65.70
2018-01-25T02:15:35.405Z,65.80
2018-01-25T02:18:09.365Z,65.70
2018-01-25T02:20:43.458Z,65.70
2018-01-25T02:23:19.764Z,65.70
2018-01-25T02:25:53.747Z,65.90
2018-01-25T02:28:27.636Z,65.90
2018-01-25T02:31:01.466Z,66.00
2018-01-25T02:33:35.539Z,66.00
2018-01-25T02:36:09.581Z,66.30
2018-01-25T02:38:44.141Z,66.30
2018-01-25T02:41:18.597Z,66.30
2018-01-25T02:43:52.374Z,66.20
2018-01-25T02:46:26.128Z,66.10
2018-01-25T02:48:59.899Z,65.80
2018-01-25T02:51:33.732Z,65.90
2018-01-25T02:54:07.448Z,66.00
2018-01-25T02:56:42.167Z,65.70
2018-01-25T02:59:16.819Z,66.30
2018-01-25T03:01:50.917Z,65.70
2018-01-25T03:04:24.801Z,65.80
2018-01-25T03:06:59.392Z,65.60
2018-01-25T03:09:33.742Z,65.60
2018-01-25T03:12:07.755Z,65.40
2018-01-25T03:14:41.711Z,66.60
2018-01-25T03:17:17.358Z,65.70
2018-01-25T03:19:51.704Z,65.60
2018-01-25T03:22:25.601Z,65.20
2018-01-25T03:24:59.527Z,64.90
2018-01-25T03:27:34.219Z,65.60
2018-01-25T03:30:08.713Z,64.80
2018-01-25T03:32:43.226Z,64.80
2018-01-25T03:35:17.266Z,64.70
2018-01-25T03:37:51.405Z,64.50
2018-01-25T03:40:26.699Z,64.20
2018-01-25T03:43:01.888Z,64.20
2018-01-25T03:45:36.014Z,64.20
2018-01-25T03:48:09.938Z,64.00
2018-01-25T03:50:45.420Z,63.70
2018-01-25T03:53:20.608Z,63.60
2018-01-25T03:55:54.352Z,63.70
2018-01-25T03:58:29.044Z,63.70
2018-01-25T04:01:03.712Z,63.60
2018-01-25T04:03:37.723Z,63.60
2018-01-25T04:06:11.402Z,63.60
2018-01-25T04:08:45.082Z,63.60
2018-01-25T04:11:19.112Z,63.80
2018-01-25T04:13:53.690Z,63.90
2018-01-25T04:16:28.099Z,63.90
2018-01-25T04:19:02.104Z,63.90
2018-01-25T04:21:36.718Z,64.10
2018-01-25T04:24:12.030Z,64.00
2018-01-25T04:26:46.018Z,63.90
2018-01-25T04:29:20.145Z,64.00
2018-01-25T04:31:54.019Z,64.00
2018-01-25T04:34:27.960Z,64.00
2018-01-25T04:37:02.616Z,64.00
2018-01-25T04:39:36.743Z,64.00
2018-01-25T04:42:10.453Z,64.20
2018-01-25T04:44:45.196Z,64.40
2018-01-25T04:47:19.093Z,64.40
2018-01-25T04:49:52.965Z,64.50
2018-01-25T04:52:27.036Z,64.60
2018-01-25T04:55:01.633Z,64.60
2018-01-25T04:57:35.399Z,64.60
2018-01-25T05:00:09.605Z,64.80
2018-01-25T05:02:43.980Z,64.90
2018-01-25T05:05:18.753Z,65.30
2018-01-25T05:07:52.724Z,65.20
2018-01-25T05:10:26.652Z,66.30
2018-01-25T05:13:00.740Z,65.60
2018-01-25T05:15:35.283Z,67.00
2018-01-25T05:18:09.281Z,66.30
2018-01-25T05:20:44.028Z,66.50
2018-01-25T05:23:20.700Z,66.40
2018-01-25T05:25:54.628Z,66.40
2018-01-25T05:28:28.521Z,66.90
2018-01-25T05:31:02.340Z,67.10
2018-01-25T05:33:36.412Z,67.20
2018-01-25T05:36:10.257Z,67.30
2018-01-25T05:38:44.795Z,68.80
2018-01-25T05:41:19.774Z,69.20
2018-01-25T05:43:53.927Z,69.20
2018-01-25T05:46:28.997Z,69.70
2018-01-25T05:49:03.012Z,69.70
2018-01-25T05:51:36.967Z,69.90
2018-01-25T05:54:11.756Z,70.40
2018-01-25T05:56:45.918Z,70.40
2018-01-25T05:59:20.524Z,70.90
2018-01-25T06:01:54.634Z,70.90
2018-01-25T06:04:29.179Z,71.50
2018-01-25T06:07:04.292Z,71.50
2018-01-25T06:09:38.227Z,71.50
2018-01-25T06:12:12.170Z,72.50
2018-01-25T06:14:46.681Z,72.40
2018-01-25T06:17:22.138Z,72.50
2018-01-25T06:19:56.576Z,72.60
2018-01-25T06:22:30.590Z,72.90
2018-01-25T06:25:04.290Z,73.00
2018-01-25T06:27:38.922Z,73.70
2018-01-25T06:30:12.825Z,73.60
2018-01-25T06:32:46.792Z,73.70
2018-01-25T06:35:20.584Z,74.10
2018-01-25T06:37:55.060Z,74.00
2018-01-25T06:40:29.317Z,73.70
2018-01-25T06:43:03.310Z,73.50
2018-01-25T06:45:38.072Z,74.40
2018-01-25T06:48:11.934Z,73.60
2018-01-25T06:50:45.914Z,72.80
2018-01-25T06:53:21.029Z,72.50
2018-01-25T06:55:55.778Z,72.20
2018-01-25T06:58:30.115Z,72.10
2018-01-25T07:01:04.683Z,72.00
2018-01-25T07:03:38.887Z,72.00
2018-01-25T07:06:12.946Z,72.10
2018-01-25T07:08:47.071Z,72.10
2018-01-25T07:11:20.875Z,72.30
2018-01-25T07:13:54.771Z,72.10
2018-01-25T07:16:28.654Z,72.10
2018-01-25T07:19:02.723Z,72.10
2018-01-25T07:21:36.653Z,72.00
2018-01-25T07:24:12.147Z,72.50
2018-01-25T07:26:47.028Z,73.70
2018-01-25T07:29:21.198Z,72.90
2018-01-25T07:31:55.087Z,73.00
2018-01-25T07:34:28.934Z,73.60
2018-01-25T07:37:03.565Z,73.30
2018-01-25T07:39:38.469Z,73.70
2018-01-25T07:42:12.440Z,73.70
2018-01-25T07:44:46.287Z,73.60
2018-01-25T07:47:20.297Z,73.40
2018-01-25T07:49:54.780Z,74.00
2018-01-25T07:52:28.946Z,74.00
2018-01-25T07:55:02.866Z,73.90
2018-01-25T07:57:43.082Z,73.50
2018-01-25T08:00:18.224Z,73.10
2018-01-25T08:02:52.267Z,73.10
2018-01-25T08:05:26.392Z,72.60
2018-01-25T08:08:00.342Z,72.60
2018-01-25T08:10:34.088Z,72.00
2018-01-25T08:13:14.359Z,71.50
2018-01-25T08:15:49.672Z,71.40
2018-01-25T08:18:23.563Z,71.40
2018-01-25T08:20:57.880Z,71.50
2018-01-25T08:23:32.103Z,71.50
2018-01-25T08:26:06.025Z,71.80
2018-01-25T08:28:39.802Z,71.80
2018-01-25T08:31:14.421Z,72.60
2018-01-25T08:33:48.396Z,72.50
2018-01-25T08:36:23.043Z,73.00
2018-01-25T08:38:58.974Z,73.00
2018-01-25T08:41:33.260Z,72.90
2018-01-25T08:44:07.736Z,73.10
2018-01-25T08:46:42.369Z,72.90
2018-01-25T08:49:16.262Z,72.90
2018-01-25T08:51:50.921Z,72.70
2018-01-25T08:54:25.014Z,72.70
2018-01-25T08:56:58.808Z,71.70
2018-01-25T08:59:32.581Z,71.50
2018-01-25T09:02:06.737Z,71.80
2018-01-25T09:04:41.441Z,72.10
2018-01-25T09:07:15.438Z,71.40
2018-01-25T09:09:49.532Z,71.30
2018-01-25T09:12:23.562Z,71.00
2018-01-25T09:14:57.721Z,71.20
2018-01-25T09:17:31.565Z,71.00
2018-01-25T09:20:06.137Z,71.70
2018-01-25T09:22:40.259Z,71.70
2018-01-25T09:25:14.432Z,71.50
2018-01-25T09:27:49.151Z,71.90
2018-01-25T09:30:24.634Z,71.70
2018-01-25T09:32:58.696Z,71.60
2018-01-25T09:35:32.748Z,72.10
2018-01-25T09:38:06.651Z,72.10
2018-01-25T09:40:41.186Z,72.10
2018-01-25T09:43:16.078Z,72.80
2018-01-25T09:45:50.206Z,72.80
2018-01-25T09:48:24.291Z,72.90
2018-01-25T09:50:59.450Z,73.20
2018-01-25T09:53:34.101Z,73.40
2018-01-25T09:56:08.787Z,75.00
2018-01-25T09:58:42.975Z,74.00
2018-01-25T10:01:16.929Z,74.10
2018-01-25T10:03:51.575Z,74.80
2018-01-25T10:06:25.555Z,74.80
2018-01-25T10:09:00.421Z,75.00
2018-01-25T10:11:34.653Z,74.90
2018-01-25T10:14:08.355Z,76.00
2018-01-25T10:16:42.486Z,75.40
2018-01-25T10:19:17.386Z,75.90
2018-01-25T10:21:51.719Z,75.80
2018-01-25T10:24:26.311Z,77.00
2018-01-25T10:27:00.254Z,76.40
2018-01-25T10:29:34.970Z,76.70
2018-01-25T10:32:09.124Z,76.60
2018-01-25T10:34:43.360Z,76.60
2018-01-25T10:37:17.991Z,76.50
2018-01-25T10:39:52.432Z,76.30
2018-01-25T10:42:27.159Z,76.10
2018-01-25T10:45:00.965Z,75.90
2018-01-25T10:47:34.957Z,75.70
2018-01-25T10:50:09.948Z,75.60
2018-01-25T10:52:44.698Z,76.60
2018-01-25T10:55:19.334Z,76.50
2018-01-25T10:57:53.232Z,76.10
2018-01-25T11:00:27.025Z,76.40
2018-01-25T11:03:01.852Z,76.20
2018-01-25T11:05:36.533Z,76.30
2018-01-25T11:08:11.241Z,76.40
2018-01-25T11:10:45.317Z,76.40
2018-01-25T11:13:19.067Z,76.60
2018-01-25T11:15:53.032Z,76.00
2018-01-25T11:18:26.839Z,76.00
2018-01-25T11:21:01.056Z,76.20
2018-01-25T11:23:34.980Z,76.00
2018-01-25T11:26:08.958Z,76.10
2018-01-25T11:28:42.909Z,75.90
2018-01-25T11:31:16.889Z,75.80
2018-01-25T11:33:52.207Z,76.40
2018-01-25T11:36:26.399Z,76.40
2018-01-25T11:39:01.088Z,76.70
2018-01-25T11:41:35.167Z,76.80
2018-01-25T11:44:10.545Z,76.80
2018-01-25T11:46:45.652Z,76.70
2018-01-25T11:49:33.656Z,76.80
2018-01-25T11:52:09.245Z,77.10
2018-01-25T11:54:43.409Z,77.00
2018-01-25T11:57:17.329Z,76.80
2018-01-25T11:59:52.089Z,77.00
2018-01-25T12:02:26.702Z,77.30
2018-01-25T12:05:00.522Z,76.40
2018-01-25T12:07:34.353Z,76.40
2018-01-25T12:10:08.499Z,76.30
2018-01-25T12:12:42.951Z,75.90
2018-01-25T12:15:17.561Z,75.10
2018-01-25T12:17:52.023Z,75.10
2018-01-25T12:20:25.839Z,74.70
2018-01-25T12:22:59.814Z,74.80
2018-01-25T12:25:33.721Z,75.10
2018-01-25T12:28:08.147Z,74.90
2018-01-25T12:30:42.199Z,74.90
2018-01-25T12:33:16.003Z,74.60
2018-01-25T12:35:49.778Z,74.50
2018-01-25T12:38:24.378Z,74.40
2018-01-25T12:40:58.465Z,73.80
2018-01-25T12:43:32.377Z,73.40
2018-01-25T12:46:07.013Z,73.10
2018-01-25T12:48:41.279Z,73.10
2018-01-25T12:51:15.853Z,72.10
2018-01-25T12:53:49.995Z,72.10
2018-01-25T12:56:23.770Z,72.00
2018-01-25T12:58:58.412Z,72.40
2018-01-25T13:01:33.505Z,70.80
2018-01-25T13:04:07.518Z,71.40
2018-01-25T13:06:41.532Z,71.20
2018-01-25T13:09:15.627Z,70.90
2018-01-25T13:11:49.651Z,70.80
2018-01-25T13:14:23.322Z,70.70
2018-01-25T13:16:57.329Z,70.80
2018-01-25T13:19:31.254Z,70.70
2018-01-25T13:22:05.657Z,70.70
2018-01-25T13:24:39.478Z,70.70
2018-01-25T13:27:13.158Z,70.10
2018-01-25T13:29:47.731Z,69.50
2018-01-25T13:32:21.743Z,69.50
2018-01-25T13:34:55.678Z,69.30
2018-01-25T13:37:29.655Z,69.30
2018-01-25T13:40:03.764Z,68.90
2018-01-25T13:42:38.149Z,69.10
2018-01-25T13:45:12.057Z,69.20
2018-01-25T13:47:45.888Z,69.50
2018-01-25T13:50:19.783Z,69.70
2018-01-25T13:52:54.338Z,69.60
2018-01-25T13:55:29.212Z,69.60
2018-01-25T13:58:03.979Z,69.30
2018-01-25T14:00:38.369Z,69.30
2018-01-25T14:03:12.624Z,69.30
2018-01-25T14:05:46.929Z,68.90
2018-01-25T14:08:20.686Z,68.70
2018-01-25T14:10:54.555Z,68.40
2018-01-25T14:13:29.092Z,67.80
2018-01-25T14:16:03.267Z,67.80
2018-01-25T14:18:37.148Z,67.30
2018-01-25T14:21:11.847Z,67.60
2018-01-25T14:23:46.486Z,66.70
2018-01-25T14:26:20.768Z,66.70
2018-01-25T14:28:54.949Z,67.40
2018-01-25T14:31:30.362Z,66.60
2018-01-25T14:34:04.501Z,66.50
2018-01-25T14:36:38.270Z,67.00
2018-01-25T14:39:12.975Z,66.20
2018-01-25T14:41:47.084Z,66.20
2018-01-25T14:44:21.349Z,65.70
2018-01-25T14:46:55.148Z,65.40
2018-01-25T14:49:29.545Z,66.20
2018-01-25T14:52:04.496Z,67.60
2018-01-25T14:54:38.509Z,66.70
2018-01-25T14:57:12.335Z,65.80
2018-01-25T14:59:46.124Z,66.80
2018-01-25T15:02:20.073Z,66.10
2018-01-25T15:04:53.953Z,65.60
2018-01-25T15:07:27.927Z,66.80
2018-01-25T15:10:01.849Z,64.90
2018-01-25T15:12:35.792Z,65.40
2018-01-25T15:15:09.681Z,66.20
2018-01-25T15:17:43.458Z,65.70
2018-01-25T15:20:17.269Z,65.40
2018-01-25T15:22:51.197Z,64.80
2018-01-25T15:25:31.301Z,65.50
2018-01-25T15:28:06.566Z,65.30
2018-01-25T15:30:40.787Z,65.10
2018-01-25T15:33:15.185Z,65.30
2018-01-25T15:35:49.224Z,65.10
2018-01-25T15:38:23.057Z,65.30
2018-01-25T15:40:57.702Z,65.70
2018-01-25T15:43:31.807Z,65.70
2018-01-25T15:46:06.200Z,66.30
2018-01-25T15:48:40.599Z,66.10
2018-01-25T15:51:14.693Z,66.00
2018-01-25T15:53:48.859Z,65.40
2018-01-25T15:56:22.740Z,65.90
2018-01-25T15:58:57.880Z,66.00
2018-01-25T16:01:31.909Z,66.00
2018-01-25T16:04:05.816Z,66.70
2018-01-25T16:06:39.557Z,66.80
2018-01-25T16:09:13.314Z,66.70
2018-01-25T16:11:47.137Z,66.20
2018-01-25T16:14:20.961Z,66.20
2018-01-25T16:16:54.724Z,66.60
2018-01-25T16:19:29.231Z,65.60
2018-01-25T16:22:03.835Z,66.00
2018-01-25T16:24:37.863Z,66.00
2018-01-25T16:27:12.472Z,66.10
2018-01-25T16:29:46.400Z,65.70
2018-01-25T16:32:20.204Z,65.60
2018-01-25T16:34:54.878Z,66.80
2018-01-25T16:37:28.711Z,66.90
2018-01-25T16:40:05.676Z,66.50
2018-01-25T16:42:40.911Z,65.70
2018-01-25T16:45:16.085Z,66.00
2018-01-25T16:47:49.930Z,66.00
2018-01-25T16:50:24.637Z,65.10
2018-01-25T16:52:58.809Z,65.10
2018-01-25T16:55:34.854Z,65.30
2018-01-25T16:58:09.341Z,65.30
2018-01-25T17:00:43.102Z,65.00
2018-01-25T17:03:18.075Z,64.90
2018-01-25T17:05:51.917Z,65.70
2018-01-25T17:08:26.497Z,65.10
2018-01-25T17:11:01.235Z,65.40
2018-01-25T17:13:35.510Z,65.40
2018-01-25T17:16:10.061Z,65.50
2018-01-25T17:18:44.216Z,65.50
2018-01-25T17:21:17.974Z,65.30
2018-01-25T17:23:51.880Z,65.00
2018-01-25T17:26:25.862Z,64.50
2018-01-25T17:28:59.703Z,64.40
2018-01-25T17:31:35.073Z,64.00
2018-01-25T17:34:09.506Z,64.00
2018-01-25T17:36:45.013Z,65.10
2018-01-25T17:39:19.085Z,65.10
2018-01-25T17:41:52.910Z,64.80
2018-01-25T17:44:27.599Z,64.30
2018-01-25T17:47:02.488Z,64.70
2018-01-25T17:49:37.170Z,65.40
2018-01-25T17:52:11.412Z,64.50
2018-01-25T17:54:45.389Z,65.10
2018-01-25T17:57:19.382Z,64.70
2018-01-25T17:59:53.811Z,65.00
2018-01-25T18:02:28.634Z,64.80
2018-01-25T18:05:03.227Z,64.50
2018-01-25T18:07:37.367Z,64.60
2018-01-25T18:10:12.052Z,64.50
2018-01-25T18:12:46.830Z,64.50
2018-01-25T18:15:20.834Z,64.20
2018-01-25T18:17:55.635Z,63.90
2018-01-25T18:20:30.284Z,63.80
2018-01-25T18:23:04.102Z,63.60
2018-01-25T18:25:37.935Z,64.60
2018-01-25T18:28:11.653Z,65.00
2018-01-25T18:30:45.444Z,64.40
2018-01-25T18:33:19.453Z,64.80
2018-01-25T18:35:54.897Z,64.60
2018-01-25T18:38:29.381Z,64.60
2018-01-25T18:41:03.735Z,64.00
2018-01-25T18:43:37.530Z,63.50
2018-01-25T18:46:12.724Z,63.20
2018-01-25T18:48:47.944Z,64.00
2018-01-25T18:51:22.852Z,63.70
2018-01-25T18:53:56.816Z,63.60
2018-01-25T18:56:31.473Z,63.60
2018-01-25T18:59:06.423Z,64.10
2018-01-25T19:01:41.641Z,63.50
2018-01-25T19:04:15.714Z,63.40
2018-01-25T19:06:49.800Z,63.70
2018-01-25T19:09:23.880Z,63.70
2018-01-25T19:11:57.725Z,64.10
2018-01-25T19:14:31.597Z,63.50
2018-01-25T19:17:06.209Z,64.00
2018-01-25T19:19:40.052Z,64.10
2018-01-25T19:22:13.852Z,63.80
2018-01-25T19:24:48.654Z,63.90
2018-01-25T19:27:23.395Z,63.90
2018-01-25T19:29:57.314Z,63.60
2018-01-25T19:32:32.017Z,63.50
2018-01-25T19:35:06.383Z,63.50
2018-01-25T19:37:41.120Z,63.50
2018-01-25T19:40:15.807Z,63.90
2018-01-25T19:42:49.968Z,63.90
2018-01-25T19:45:23.937Z,63.60
2018-01-25T19:47:58.429Z,64.00
2018-01-25T19:50:32.695Z,64.00
2018-01-25T19:53:06.586Z,64.20
2018-01-25T19:55:41.387Z,65.10
2018-01-25T19:58:15.500Z,64.20
2018-01-25T20:00:49.464Z,64.30
2018-01-25T20:03:24.071Z,65.00
2018-01-25T20:05:58.111Z,64.80
2018-01-25T20:08:32.894Z,64.50
2018-01-25T20:11:08.329Z,65.00
2018-01-25T20:13:42.363Z,64.90
2018-01-25T20:16:16.659Z,65.40
2018-01-25T20:18:51.055Z,64.70
2018-01-25T20:21:25.073Z,64.70
2018-01-25T20:23:59.670Z,65.20
2018-01-25T20:26:34.114Z,65.20
2018-01-25T20:29:08.056Z,65.80
2018-01-25T20:31:41.919Z,65.40
2018-01-25T20:34:17.347Z,65.50
2018-01-25T20:36:52.109Z,65.10
2018-01-25T20:39:26.387Z,65.00
2018-01-25T20:42:00.950Z,65.10
2018-01-25T20:44:35.447Z,64.30
2018-01-25T20:47:09.466Z,64.30
2018-01-25T20:49:44.191Z,64.50
2018-01-25T20:52:18.073Z,64.60
2018-01-25T20:54:51.896Z,64.70
2018-01-25T20:57:26.655Z,64.50
2018-01-25T21:00:00.648Z,64.50
2018-01-25T21:02:34.441Z,65.20
2018-01-25T21:05:09.089Z,65.50
2018-01-25T21:07:42.895Z,65.00
2018-01-25T21:10:16.602Z,65.10
2018-01-25T21:12:50.478Z,65.20
2018-01-25T21:15:24.353Z,64.60
2018-01-25T21:17:58.176Z,65.30
2018-01-25T21:20:32.608Z,66.10
2018-01-25T21:23:08.143Z,65.60
2018-01-25T21:25:42.442Z,65.60
2018-01-25T21:28:16.764Z,65.50
2018-01-25T21:30:51.414Z,65.70
2018-01-25T21:33:25.673Z,65.70
2018-01-25T21:35:59.575Z,65.50
2018-01-25T21:38:33.574Z,65.40
2018-01-25T21:41:07.365Z,65.30
2018-01-25T21:43:41.551Z,64.90
2018-01-25T21:46:15.972Z,64.60
2018-01-25T21:48:49.872Z,64.80
2018-01-25T21:51:23.703Z,63.90
2018-01-25T21:53:58.256Z,63.40
2018-01-25T21:56:32.488Z,63.30
2018-01-25T21:59:07.232Z,64.70
2018-01-25T22:01:41.990Z,65.10
2018-01-25T22:04:16.717Z,64.80
2018-01-25T22:06:50.563Z,64.70
2018-01-25T22:09:24.394Z,64.00
2018-01-25T22:11:58.867Z,64.60
2018-01-25T22:14:33.749Z,64.80
2018-01-25T22:17:07.841Z,64.60
2018-01-25T22:19:41.678Z,64.60
2018-01-25T22:22:15.452Z,65.30
2018-01-25T22:24:49.459Z,65.30
2018-01-25T22:27:23.198Z,64.90
2018-01-25T22:29:57.894Z,64.70
2018-01-25T22:32:32.160Z,64.70
2018-01-25T22:35:06.086Z,64.40
2018-01-25T22:37:40.817Z,66.20
2018-01-25T22:40:15.877Z,66.50
2018-01-25T22:42:50.266Z,66.50
2018-01-25T22:45:24.248Z,66.80
2018-01-25T22:47:58.877Z,65.70
2018-01-25T22:50:33.058Z,65.60
2018-01-25T22:53:07.352Z,65.40
2018-01-25T22:55:42.595Z,65.80
2018-01-25T22:58:16.785Z,65.80
2018-01-25T23:00:51.799Z,65.90
2018-01-25T23:03:26.276Z,66.40
2018-01-25T23:06:00.415Z,66.50
2018-01-25T23:08:34.651Z,66.60
2018-01-25T23:11:08.490Z,66.90
2018-01-25T23:13:42.248Z,66.80
2018-01-25T23:16:16.936Z,68.30
2018-01-25T23:18:51.069Z,68.20
2018-01-25T23:21:24.903Z,69.60
2018-01-25T23:23:58.841Z,70.70
2018-01-25T23:26:33.537Z,70.60
2018-01-25T23:29:08.500Z,70.10
2018-01-25T23:31:42.568Z,70.10
2018-01-25T23:34:16.247Z,70.40
2018-01-25T23:36:49.977Z,71.40
2018-01-25T23:39:23.892Z,71.70
2018-01-25T23:41:58.582Z,72.50
2018-01-25T23:44:32.828Z,73.30
2018-01-25T23:47:06.925Z,73.10
2018-01-25T23:49:40.716Z,73.40
2018-01-25T23:52:14.971Z,73.10
2018-01-25T23:54:48.859Z,73.40
2018-01-25T23:57:23.756Z,74.00
2018-01-25T23:59:58.748Z,74.90
